METAR Data
IDs: Format: Raw Decoded Include TAF

Data at: 1152 UTC 23 Sep 2018

KMCI 231053Z 15004KT 10SM CLR 11/10 A3008 RMK AO2 SLP181 T01110100
KMCI 230953Z 15006KT 10SM CLR 11/09 A3007 RMK AO2 SLP179 T01060094
KMCI 230853Z 14006KT 10SM CLR 12/09 A3008 RMK AO2 SLP180 T01170094 58005
KMCI 230753Z 13005KT 10SM CLR 13/10 A3008 RMK AO2 SLP182 T01280100
KMCI 230653Z 13005KT 10SM CLR 14/10 A3009 RMK AO2 SLP184 T01390100
KMCI 230553Z 13005KT 10SM CLR 14/10 A3010 RMK AO2 SLP185 T01390100 10194 20133 402280078 58007
KMCI 230453Z 12005KT 10SM CLR 14/09 A3010 RMK AO2 SLP190 T01440094
KMCI 230353Z 12006KT 10SM CLR 16/09 A3011 RMK AO2 SLP192 T01560094
KMCI 230253Z 07006KT 10SM CLR 17/09 A3012 RMK AO2 SLP194 T01670094 53000
KMCI 230153Z 07006KT 10SM CLR 18/09 A3010 RMK AO2 SLP190 T01780094
KMCI 230053Z 06005KT 10SM CLR 18/09 A3011 RMK AO2 SLP192 T01780094
KMCI 222353Z 14004KT 10SM CLR 19/09 A3011 RMK AO2 SLP195 T01940094 10228 20189 56007
KMCI 222253Z 12007KT 10SM CLR 22/08 A3012 RMK AO2 SLP193 T02170083
KMCI 222153Z 11005KT 10SM CLR 22/09 A3012 RMK AO2 SLP195 T02220089
KMCI 222053Z VRB03KT 10SM CLR 22/08 A3014 RMK AO2 SLP201 T02220083 58029
KMCI 221953Z 18003KT 10SM CLR 22/09 A3017 RMK AO2 SLP210 T02220089
KMCI 221853Z VRB06KT 10SM CLR 21/08 A3020 RMK AO2 SLP221 T02110083
KMCI 221753Z 04007KT 10SM CLR 20/09 A3023 RMK AO2 SLP231 T02000089 10200 20078 58018
KMCI 221653Z 12004KT 10SM FEW200 17/09 A3026 RMK AO2 SLP243 T01720089
KMCI 221553Z VRB04KT 10SM FEW200 16/09 A3028 RMK AO2 SLP249 T01610089
KMCI 221453Z 10008KT 10SM FEW200 14/08 A3028 RMK AO2 SLP251 T01390083 58001
KMCI 221353Z 07008KT 10SM FEW200 12/07 A3029 RMK AO2 SLP254 T01170072
KMCI 221253Z 05005KT 10SM SCT200 10/08 A3029 RMK AO2 SLP257 T01000078
KMCI 221153Z 03005KT 10SM FEW200 08/07 A3028 RMK AO2 SLP253 T00830067 10128 20083 53001
KMCI 221053Z 06008KT 10SM CLR 10/07 A3028 RMK AO2 SLP251 T01000072
KMCI 220953Z 06008KT 10SM SCT150 11/08 A3027 RMK AO2 SLP249 T01060078
KMCI 220853Z 07009KT 10SM SCT150 11/08 A3028 RMK AO2 SLP250 T01110083 51000
KMCI 220753Z 06011KT 10SM BKN150 12/09 A3028 RMK AO2 SLP250 T01220089
KMCI 220653Z 04011KT 10SM BKN150 13/09 A3028 RMK AO2 SLP249 T01280089
KMCI 220553Z 04007KT 10SM BKN150 13/09 A3028 RMK AO2 SLP249 T01280094 10167 20122 402110122 58002
KMCI 220453Z 03007KT 10SM BKN200 13/09 A3028 RMK AO2 SLP250 T01330094
KMCI 220353Z 03007KT 10SM BKN150 13/10 A3029 RMK AO2 SLP252 T01330100
KMCI 220253Z 03006KT 10SM OVC150 14/10 A3029 RMK AO2 SLP251 T01390100 52018
KMCI 220153Z 02006KT 10SM BKN150 14/11 A3027 RMK AO2 SLP246 T01390106
KMCI 220053Z 01005KT 10SM BKN150 15/11 A3025 RMK AO2 SLP238 T01500106
KMCI 212353Z 01006KT 10SM BKN150 17/11 A3023 RMK AO2 SLP232 T01670106 10200 20167 51014